sensor_id;sensor_type;location;lat;lon;timestamp;P1;durP1;ratioP1;P2;durP2;ratioP2
42246;SDS011;27913;42.722;23.268;2023-07-31T00:04:18;1.77;;;1.20;;
42246;SDS011;27913;42.722;23.268;2023-07-31T00:06:44;1.30;;;0.93;;
42246;SDS011;27913;42.722;23.268;2023-07-31T00:09:10;1.55;;;0.90;;
42246;SDS011;27913;42.722;23.268;2023-07-31T00:11:35;1.00;;;0.80;;
42246;SDS011;27913;42.722;23.268;2023-07-31T00:14:01;1.17;;;0.80;;
42246;SDS011;27913;42.722;23.268;2023-07-31T00:16:26;1.15;;;0.80;;
42246;SDS011;27913;42.722;23.268;2023-07-31T00:18:52;0.50;;;0.45;;
42246;SDS011;27913;42.722;23.268;2023-07-31T00:21:17;0.82;;;0.60;;
42246;SDS011;27913;42.722;23.268;2023-07-31T00:23:43;1.60;;;0.90;;
42246;SDS011;27913;42.722;23.268;2023-07-31T00:26:08;1.45;;;1.08;;
42246;SDS011;27913;42.722;23.268;2023-07-31T00:28:34;1.60;;;1.17;;
42246;SDS011;27913;42.722;23.268;2023-07-31T00:30:59;1.38;;;0.88;;
42246;SDS011;27913;42.722;23.268;2023-07-31T00:33:25;1.33;;;0.80;;
42246;SDS011;27913;42.722;23.268;2023-07-31T00:35:50;1.23;;;0.90;;
42246;SDS011;27913;42.722;23.268;2023-07-31T00:38:15;1.30;;;0.80;;
42246;SDS011;27913;42.722;23.268;2023-07-31T00:40:41;1.73;;;1.33;;
42246;SDS011;27913;42.722;23.268;2023-07-31T00:43:06;1.77;;;1.20;;
42246;SDS011;27913;42.722;23.268;2023-07-31T00:45:32;1.90;;;1.20;;
42246;SDS011;27913;42.722;23.268;2023-07-31T00:47:57;1.92;;;1.17;;
42246;SDS011;27913;42.722;23.268;2023-07-31T00:50:24;3.10;;;1.65;;
42246;SDS011;27913;42.722;23.268;2023-07-31T00:52:50;3.78;;;1.70;;
42246;SDS011;27913;42.722;23.268;2023-07-31T00:55:16;4.95;;;2.88;;
42246;SDS011;27913;42.722;23.268;2023-07-31T00:57:42;3.65;;;1.98;;
42246;SDS011;27913;42.722;23.268;2023-07-31T01:00:08;3.67;;;1.95;;
42246;SDS011;27913;42.722;23.268;2023-07-31T01:02:34;7.30;;;2.85;;
42246;SDS011;27913;42.722;23.268;2023-07-31T01:05:01;3.65;;;1.85;;
42246;SDS011;27913;42.722;23.268;2023-07-31T01:07:31;3.22;;;2.40;;
42246;SDS011;27913;42.722;23.268;2023-07-31T01:10:10;3.17;;;2.13;;
42246;SDS011;27913;42.722;23.268;2023-07-31T01:12:41;4.95;;;2.17;;
42246;SDS011;27913;42.722;23.268;2023-07-31T01:15:08;3.90;;;2.30;;
42246;SDS011;27913;42.722;23.268;2023-07-31T01:17:40;3.50;;;2.60;;
42246;SDS011;27913;42.722;23.268;2023-07-31T01:20:26;3.47;;;2.30;;
42246;SDS011;27913;42.722;23.268;2023-07-31T01:28:19;4.25;;;3.22;;
42246;SDS011;27913;42.722;23.268;2023-07-31T01:30:49;4.35;;;2.83;;
42246;SDS011;27913;42.722;23.268;2023-07-31T01:33:15;4.60;;;2.90;;
42246;SDS011;27913;42.722;23.268;2023-07-31T01:35:42;4.35;;;3.00;;
42246;SDS011;27913;42.722;23.268;2023-07-31T01:38:11;5.25;;;3.42;;
42246;SDS011;27913;42.722;23.268;2023-07-31T01:40:37;3.53;;;2.65;;
42246;SDS011;27913;42.722;23.268;2023-07-31T01:43:02;5.15;;;3.67;;
42246;SDS011;27913;42.722;23.268;2023-07-31T01:45:28;7.63;;;4.57;;
42246;SDS011;27913;42.722;23.268;2023-07-31T01:47:53;6.15;;;4.28;;
42246;SDS011;27913;42.722;23.268;2023-07-31T01:50:19;8.32;;;4.35;;
42246;SDS011;27913;42.722;23.268;2023-07-31T01:52:44;5.07;;;3.70;;
42246;SDS011;27913;42.722;23.268;2023-07-31T01:55:10;5.13;;;3.58;;
42246;SDS011;27913;42.722;23.268;2023-07-31T01:57:36;5.47;;;4.03;;
42246;SDS011;27913;42.722;23.268;2023-07-31T02:00:02;7.55;;;4.68;;
42246;SDS011;27913;42.722;23.268;2023-07-31T02:02:28;6.32;;;3.83;;
42246;SDS011;27913;42.722;23.268;2023-07-31T02:04:54;5.85;;;4.20;;
42246;SDS011;27913;42.722;23.268;2023-07-31T02:07:19;6.95;;;4.78;;
42246;SDS011;27913;42.722;23.268;2023-07-31T02:09:45;6.93;;;5.53;;
42246;SDS011;27913;42.722;23.268;2023-07-31T02:12:12;5.05;;;3.97;;
42246;SDS011;27913;42.722;23.268;2023-07-31T02:14:39;6.43;;;4.32;;
42246;SDS011;27913;42.722;23.268;2023-07-31T02:17:05;13.30;;;5.97;;
42246;SDS011;27913;42.722;23.268;2023-07-31T02:19:30;4.88;;;3.88;;
42246;SDS011;27913;42.722;23.268;2023-07-31T02:21:56;7.75;;;4.85;;
42246;SDS011;27913;42.722;23.268;2023-07-31T02:24:21;6.95;;;5.32;;
42246;SDS011;27913;42.722;23.268;2023-07-31T02:26:47;8.90;;;5.78;;
42246;SDS011;27913;42.722;23.268;2023-07-31T02:29:12;7.40;;;4.80;;
42246;SDS011;27913;42.722;23.268;2023-07-31T02:31:38;6.15;;;4.40;;
42246;SDS011;27913;42.722;23.268;2023-07-31T02:34:03;5.28;;;4.03;;
42246;SDS011;27913;42.722;23.268;2023-07-31T02:36:29;6.00;;;4.47;;
42246;SDS011;27913;42.722;23.268;2023-07-31T02:38:54;10.00;;;5.55;;
42246;SDS011;27913;42.722;23.268;2023-07-31T02:41:20;7.30;;;4.70;;
42246;SDS011;27913;42.722;23.268;2023-07-31T02:43:45;5.30;;;3.95;;
42246;SDS011;27913;42.722;23.268;2023-07-31T02:46:11;8.00;;;5.50;;
42246;SDS011;27913;42.722;23.268;2023-07-31T02:48:36;9.63;;;4.32;;
42246;SDS011;27913;42.722;23.268;2023-07-31T02:51:02;7.35;;;5.13;;
42246;SDS011;27913;42.722;23.268;2023-07-31T02:53:27;5.93;;;4.55;;
42246;SDS011;27913;42.722;23.268;2023-07-31T02:55:53;6.05;;;4.57;;
42246;SDS011;27913;42.722;23.268;2023-07-31T02:58:18;6.90;;;5.13;;
42246;SDS011;27913;42.722;23.268;2023-07-31T03:00:44;6.30;;;4.75;;
42246;SDS011;27913;42.722;23.268;2023-07-31T03:03:10;6.65;;;4.63;;
42246;SDS011;27913;42.722;23.268;2023-07-31T03:05:35;6.55;;;4.97;;
42246;SDS011;27913;42.722;23.268;2023-07-31T03:08:01;6.30;;;4.53;;
42246;SDS011;27913;42.722;23.268;2023-07-31T03:10:27;6.18;;;4.70;;
42246;SDS011;27913;42.722;23.268;2023-07-31T03:12:52;5.97;;;4.30;;
42246;SDS011;27913;42.722;23.268;2023-07-31T03:15:18;7.65;;;5.05;;
42246;SDS011;27913;42.722;23.268;2023-07-31T03:17:43;5.40;;;4.05;;
42246;SDS011;27913;42.722;23.268;2023-07-31T03:20:09;6.38;;;4.63;;
42246;SDS011;27913;42.722;23.268;2023-07-31T03:22:35;10.52;;;5.90;;
42246;SDS011;27913;42.722;23.268;2023-07-31T03:25:01;6.82;;;4.60;;
42246;SDS011;27913;42.722;23.268;2023-07-31T03:27:27;8.10;;;5.05;;
42246;SDS011;27913;42.722;23.268;2023-07-31T03:29:53;5.97;;;4.45;;
42246;SDS011;27913;42.722;23.268;2023-07-31T03:32:18;7.80;;;5.00;;
42246;SDS011;27913;42.722;23.268;2023-07-31T03:34:44;7.25;;;5.15;;
42246;SDS011;27913;42.722;23.268;2023-07-31T03:37:09;7.25;;;5.15;;
42246;SDS011;27913;42.722;23.268;2023-07-31T03:39:35;7.22;;;4.80;;
42246;SDS011;27913;42.722;23.268;2023-07-31T03:42:00;7.32;;;5.22;;
42246;SDS011;27913;42.722;23.268;2023-07-31T03:44:26;7.55;;;4.93;;
42246;SDS011;27913;42.722;23.268;2023-07-31T03:46:51;8.43;;;6.00;;
42246;SDS011;27913;42.722;23.268;2023-07-31T03:49:17;6.45;;;5.15;;
42246;SDS011;27913;42.722;23.268;2023-07-31T03:51:43;7.00;;;4.80;;
42246;SDS011;27913;42.722;23.268;2023-07-31T03:54:08;8.65;;;5.75;;
42246;SDS011;27913;42.722;23.268;2023-07-31T03:56:34;10.63;;;5.45;;
42246;SDS011;27913;42.722;23.268;2023-07-31T03:58:59;8.77;;;6.05;;
42246;SDS011;27913;42.722;23.268;2023-07-31T04:01:26;8.18;;;5.60;;
42246;SDS011;27913;42.722;23.268;2023-07-31T04:03:52;9.98;;;6.20;;
42246;SDS011;27913;42.722;23.268;2023-07-31T04:06:17;9.35;;;5.63;;
42246;SDS011;27913;42.722;23.268;2023-07-31T04:08:43;8.35;;;5.75;;
42246;SDS011;27913;42.722;23.268;2023-07-31T04:11:10;9.95;;;6.18;;
42246;SDS011;27913;42.722;23.268;2023-07-31T04:13:36;12.75;;;6.43;;
42246;SDS011;27913;42.722;23.268;2023-07-31T04:16:02;8.02;;;6.30;;
42246;SDS011;27913;42.722;23.268;2023-07-31T04:18:27;6.50;;;5.05;;
42246;SDS011;27913;42.722;23.268;2023-07-31T04:20:53;9.88;;;6.60;;
42246;SDS011;27913;42.722;23.268;2023-07-31T04:23:18;8.25;;;5.95;;
42246;SDS011;27913;42.722;23.268;2023-07-31T04:25:44;9.15;;;6.18;;
42246;SDS011;27913;42.722;23.268;2023-07-31T04:28:09;7.90;;;6.15;;
42246;SDS011;27913;42.722;23.268;2023-07-31T04:30:36;6.90;;;4.82;;
42246;SDS011;27913;42.722;23.268;2023-07-31T04:33:02;6.43;;;4.65;;
42246;SDS011;27913;42.722;23.268;2023-07-31T04:35:27;8.80;;;5.30;;
42246;SDS011;27913;42.722;23.268;2023-07-31T04:37:53;8.30;;;5.72;;
42246;SDS011;27913;42.722;23.268;2023-07-31T04:40:18;13.80;;;6.30;;
42246;SDS011;27913;42.722;23.268;2023-07-31T04:42:43;10.15;;;6.35;;
42246;SDS011;27913;42.722;23.268;2023-07-31T04:45:09;9.23;;;5.85;;
42246;SDS011;27913;42.722;23.268;2023-07-31T04:47:34;7.43;;;5.00;;
42246;SDS011;27913;42.722;23.268;2023-07-31T04:50:00;8.30;;;6.35;;
42246;SDS011;27913;42.722;23.268;2023-07-31T04:52:26;7.10;;;4.80;;
42246;SDS011;27913;42.722;23.268;2023-07-31T04:54:51;6.72;;;5.05;;
42246;SDS011;27913;42.722;23.268;2023-07-31T04:57:16;6.68;;;4.90;;
42246;SDS011;27913;42.722;23.268;2023-07-31T04:59:42;8.32;;;5.53;;
42246;SDS011;27913;42.722;23.268;2023-07-31T05:02:08;7.65;;;4.78;;
42246;SDS011;27913;42.722;23.268;2023-07-31T05:04:34;6.70;;;4.50;;
42246;SDS011;27913;42.722;23.268;2023-07-31T05:06:59;5.78;;;4.47;;
42246;SDS011;27913;42.722;23.268;2023-07-31T05:09:25;6.47;;;4.50;;
42246;SDS011;27913;42.722;23.268;2023-07-31T05:11:50;10.40;;;4.80;;
42246;SDS011;27913;42.722;23.268;2023-07-31T05:14:16;9.18;;;5.40;;
42246;SDS011;27913;42.722;23.268;2023-07-31T05:16:41;7.10;;;5.07;;
42246;SDS011;27913;42.722;23.268;2023-07-31T05:19:06;6.32;;;3.92;;
42246;SDS011;27913;42.722;23.268;2023-07-31T05:21:32;8.80;;;5.45;;
42246;SDS011;27913;42.722;23.268;2023-07-31T05:23:58;4.88;;;3.60;;
42246;SDS011;27913;42.722;23.268;2023-07-31T05:26:23;7.32;;;4.88;;
42246;SDS011;27913;42.722;23.268;2023-07-31T05:28:48;4.90;;;3.20;;
42246;SDS011;27913;42.722;23.268;2023-07-31T05:31:14;11.90;;;4.20;;
42246;SDS011;27913;42.722;23.268;2023-07-31T05:33:39;5.25;;;3.70;;
42246;SDS011;27913;42.722;23.268;2023-07-31T05:36:05;4.07;;;2.75;;
42246;SDS011;27913;42.722;23.268;2023-07-31T05:38:31;4.15;;;3.13;;
42246;SDS011;27913;42.722;23.268;2023-07-31T05:40:56;4.85;;;2.90;;
42246;SDS011;27913;42.722;23.268;2023-07-31T05:43:22;4.45;;;2.83;;
42246;SDS011;27913;42.722;23.268;2023-07-31T05:45:47;4.10;;;2.83;;
42246;SDS011;27913;42.722;23.268;2023-07-31T05:48:12;2.53;;;1.88;;
42246;SDS011;27913;42.722;23.268;2023-07-31T05:50:38;5.55;;;2.53;;
42246;SDS011;27913;42.722;23.268;2023-07-31T05:53:05;5.75;;;2.95;;
42246;SDS011;27913;42.722;23.268;2023-07-31T05:55:31;4.22;;;2.53;;
42246;SDS011;27913;42.722;23.268;2023-07-31T05:57:57;3.28;;;2.22;;
42246;SDS011;27913;42.722;23.268;2023-07-31T06:00:22;2.85;;;1.95;;
42246;SDS011;27913;42.722;23.268;2023-07-31T06:02:48;5.80;;;2.78;;
42246;SDS011;27913;42.722;23.268;2023-07-31T06:05:13;2.83;;;1.90;;
42246;SDS011;27913;42.722;23.268;2023-07-31T06:07:39;6.90;;;2.70;;
42246;SDS011;27913;42.722;23.268;2023-07-31T06:10:06;3.92;;;1.98;;
42246;SDS011;27913;42.722;23.268;2023-07-31T06:12:33;3.63;;;1.98;;
42246;SDS011;27913;42.722;23.268;2023-07-31T06:14:59;1.98;;;1.30;;
42246;SDS011;27913;42.722;23.268;2023-07-31T06:17:25;1.98;;;1.38;;
42246;SDS011;27913;42.722;23.268;2023-07-31T06:19:51;1.95;;;1.38;;
42246;SDS011;27913;42.722;23.268;2023-07-31T06:22:17;3.40;;;1.95;;
42246;SDS011;27913;42.722;23.268;2023-07-31T06:24:42;1.95;;;1.27;;
42246;SDS011;27913;42.722;23.268;2023-07-31T06:27:08;2.47;;;1.52;;
42246;SDS011;27913;42.722;23.268;2023-07-31T06:29:35;4.90;;;1.90;;
42246;SDS011;27913;42.722;23.268;2023-07-31T06:32:00;2.40;;;1.60;;
42246;SDS011;27913;42.722;23.268;2023-07-31T06:34:26;1.75;;;1.20;;
42246;SDS011;27913;42.722;23.268;2023-07-31T06:36:51;2.47;;;1.67;;
42246;SDS011;27913;42.722;23.268;2023-07-31T06:39:17;2.50;;;1.52;;
42246;SDS011;27913;42.722;23.268;2023-07-31T06:41:43;3.08;;;1.52;;
42246;SDS011;27913;42.722;23.268;2023-07-31T06:44:09;3.38;;;1.90;;
42246;SDS011;27913;42.722;23.268;2023-07-31T06:46:35;2.60;;;1.50;;
42246;SDS011;27913;42.722;23.268;2023-07-31T06:49:00;6.30;;;1.58;;
42246;SDS011;27913;42.722;23.268;2023-07-31T06:51:25;2.75;;;1.33;;
42246;SDS011;27913;42.722;23.268;2023-07-31T06:53:51;1.35;;;0.95;;
42246;SDS011;27913;42.722;23.268;2023-07-31T06:56:16;2.70;;;1.83;;
42246;SDS011;27913;42.722;23.268;2023-07-31T06:58:42;1.40;;;1.08;;
42246;SDS011;27913;42.722;23.268;2023-07-31T07:01:08;1.80;;;1.15;;
42246;SDS011;27913;42.722;23.268;2023-07-31T07:03:33;3.13;;;1.13;;
42246;SDS011;27913;42.722;23.268;2023-07-31T07:05:59;1.90;;;1.20;;
42246;SDS011;27913;42.722;23.268;2023-07-31T07:08:24;1.13;;;0.88;;
42246;SDS011;27913;42.722;23.268;2023-07-31T07:10:50;1.48;;;1.00;;
42246;SDS011;27913;42.722;23.268;2023-07-31T07:13:15;1.67;;;1.25;;
42246;SDS011;27913;42.722;23.268;2023-07-31T07:15:43;3.30;;;1.55;;
42246;SDS011;27913;42.722;23.268;2023-07-31T07:18:12;1.30;;;0.98;;
42246;SDS011;27913;42.722;23.268;2023-07-31T07:20:39;2.00;;;1.10;;
42246;SDS011;27913;42.722;23.268;2023-07-31T07:23:04;1.63;;;0.90;;
42246;SDS011;27913;42.722;23.268;2023-07-31T07:25:30;3.08;;;1.90;;
42246;SDS011;27913;42.722;23.268;2023-07-31T07:27:55;2.97;;;1.55;;
42246;SDS011;27913;42.722;23.268;2023-07-31T07:30:21;2.40;;;1.20;;
42246;SDS011;27913;42.722;23.268;2023-07-31T07:32:46;1.88;;;1.10;;
42246;SDS011;27913;42.722;23.268;2023-07-31T07:35:12;1.48;;;0.98;;
42246;SDS011;27913;42.722;23.268;2023-07-31T07:37:37;5.80;;;1.20;;
42246;SDS011;27913;42.722;23.268;2023-07-31T07:40:03;1.50;;;0.82;;
42246;SDS011;27913;42.722;23.268;2023-07-31T07:42:28;1.30;;;0.80;;
42246;SDS011;27913;42.722;23.268;2023-07-31T07:44:54;1.08;;;0.80;;
42246;SDS011;27913;42.722;23.268;2023-07-31T07:47:20;0.75;;;0.68;;
42246;SDS011;27913;42.722;23.268;2023-07-31T07:49:45;1.27;;;0.82;;
42246;SDS011;27913;42.722;23.268;2023-07-31T07:52:11;4.32;;;1.25;;
42246;SDS011;27913;42.722;23.268;2023-07-31T07:54:36;2.53;;;1.60;;
42246;SDS011;27913;42.722;23.268;2023-07-31T07:57:02;1.55;;;1.10;;
42246;SDS011;27913;42.722;23.268;2023-07-31T07:59:28;0.95;;;0.75;;
42246;SDS011;27913;42.722;23.268;2023-07-31T08:01:53;2.30;;;1.45;;
42246;SDS011;27913;42.722;23.268;2023-07-31T08:04:19;1.30;;;0.68;;
42246;SDS011;27913;42.722;23.268;2023-07-31T08:06:44;1.85;;;1.10;;
42246;SDS011;27913;42.722;23.268;2023-07-31T08:09:10;2.03;;;1.40;;
42246;SDS011;27913;42.722;23.268;2023-07-31T08:11:35;2.03;;;1.35;;
42246;SDS011;27913;42.722;23.268;2023-07-31T08:14:01;2.58;;;1.50;;
42246;SDS011;27913;42.722;23.268;2023-07-31T08:16:27;1.90;;;1.13;;
42246;SDS011;27913;42.722;23.268;2023-07-31T08:18:52;2.20;;;1.27;;
42246;SDS011;27913;42.722;23.268;2023-07-31T08:21:17;1.50;;;0.98;;
42246;SDS011;27913;42.722;23.268;2023-07-31T08:23:43;2.65;;;1.02;;
42246;SDS011;27913;42.722;23.268;2023-07-31T08:26:14;3.28;;;1.10;;
42246;SDS011;27913;42.722;23.268;2023-07-31T08:28:43;1.40;;;0.80;;
42246;SDS011;27913;42.722;23.268;2023-07-31T08:31:08;1.58;;;1.08;;
42246;SDS011;27913;42.722;23.268;2023-07-31T08:33:34;1.35;;;0.77;;
42246;SDS011;27913;42.722;23.268;2023-07-31T08:35:59;1.45;;;0.82;;
42246;SDS011;27913;42.722;23.268;2023-07-31T08:38:26;1.77;;;1.02;;
42246;SDS011;27913;42.722;23.268;2023-07-31T08:40:51;1.40;;;0.70;;
42246;SDS011;27913;42.722;23.268;2023-07-31T08:43:17;1.67;;;0.98;;
42246;SDS011;27913;42.722;23.268;2023-07-31T08:45:45;2.97;;;1.40;;
42246;SDS011;27913;42.722;23.268;2023-07-31T08:48:12;1.85;;;1.30;;
42246;SDS011;27913;42.722;23.268;2023-07-31T08:50:38;1.45;;;1.15;;
42246;SDS011;27913;42.722;23.268;2023-07-31T08:53:03;2.42;;;1.10;;
42246;SDS011;27913;42.722;23.268;2023-07-31T08:55:29;1.20;;;0.70;;
42246;SDS011;27913;42.722;23.268;2023-07-31T08:57:56;1.02;;;0.80;;
42246;SDS011;27913;42.722;23.268;2023-07-31T09:00:22;2.33;;;1.20;;
42246;SDS011;27913;42.722;23.268;2023-07-31T09:02:58;1.33;;;0.90;;
42246;SDS011;27913;42.722;23.268;2023-07-31T09:05:30;2.20;;;1.00;;
42246;SDS011;27913;42.722;23.268;2023-07-31T09:07:57;1.30;;;0.75;;
42246;SDS011;27913;42.722;23.268;2023-07-31T09:10:23;0.85;;;0.68;;
42246;SDS011;27913;42.722;23.268;2023-07-31T09:12:50;1.48;;;0.93;;
42246;SDS011;27913;42.722;23.268;2023-07-31T09:15:17;2.10;;;1.20;;
42246;SDS011;27913;42.722;23.268;2023-07-31T09:17:42;1.92;;;1.23;;
42246;SDS011;27913;42.722;23.268;2023-07-31T09:20:15;3.03;;;1.38;;
42246;SDS011;27913;42.722;23.268;2023-07-31T09:22:41;1.08;;;0.82;;
42246;SDS011;27913;42.722;23.268;2023-07-31T09:25:15;1.52;;;0.85;;
42246;SDS011;27913;42.722;23.268;2023-07-31T09:27:50;1.75;;;0.80;;
42246;SDS011;27913;42.722;23.268;2023-07-31T09:30:18;1.58;;;1.13;;
42246;SDS011;27913;42.722;23.268;2023-07-31T09:32:44;1.38;;;0.98;;
42246;SDS011;27913;42.722;23.268;2023-07-31T09:37:53;1.30;;;0.93;;
42246;SDS011;27913;42.722;23.268;2023-07-31T09:43:00;1.17;;;0.90;;
42246;SDS011;27913;42.722;23.268;2023-07-31T09:45:33;1.45;;;0.88;;
42246;SDS011;27913;42.722;23.268;2023-07-31T09:47:59;0.80;;;0.60;;
42246;SDS011;27913;42.722;23.268;2023-07-31T09:50:25;0.50;;;0.50;;
42246;SDS011;27913;42.722;23.268;2023-07-31T09:52:51;1.65;;;0.93;;
42246;SDS011;27913;42.722;23.268;2023-07-31T09:55:17;1.17;;;0.80;;
42246;SDS011;27913;42.722;23.268;2023-07-31T09:57:45;2.22;;;1.13;;
42246;SDS011;27913;42.722;23.268;2023-07-31T10:00:12;3.65;;;0.90;;
42246;SDS011;27913;42.722;23.268;2023-07-31T10:02:39;2.40;;;0.82;;
42246;SDS011;27913;42.722;23.268;2023-07-31T10:05:05;2.47;;;1.23;;
42246;SDS011;27913;42.722;23.268;2023-07-31T10:07:34;0.98;;;0.68;;
42246;SDS011;27913;42.722;23.268;2023-07-31T10:10:03;1.92;;;0.57;;
42246;SDS011;27913;42.722;23.268;2023-07-31T10:12:29;1.70;;;0.80;;
42246;SDS011;27913;42.722;23.268;2023-07-31T10:14:57;0.73;;;0.50;;
42246;SDS011;27913;42.722;23.268;2023-07-31T10:17:24;1.55;;;0.82;;
42246;SDS011;27913;42.722;23.268;2023-07-31T10:19:51;1.27;;;0.88;;
42246;SDS011;27913;42.722;23.268;2023-07-31T10:22:19;1.45;;;0.75;;
42246;SDS011;27913;42.722;23.268;2023-07-31T10:24:46;0.57;;;0.50;;
42246;SDS011;27913;42.722;23.268;2023-07-31T10:27:12;0.90;;;0.60;;
42246;SDS011;27913;42.722;23.268;2023-07-31T10:29:38;0.52;;;0.52;;
42246;SDS011;27913;42.722;23.268;2023-07-31T10:32:05;6.95;;;0.70;;
42246;SDS011;27913;42.722;23.268;2023-07-31T10:34:35;0.57;;;0.57;;
42246;SDS011;27913;42.722;23.268;2023-07-31T10:40:18;0.73;;;0.63;;
42246;SDS011;27913;42.722;23.268;2023-07-31T10:42:52;1.02;;;0.63;;
42246;SDS011;27913;42.722;23.268;2023-07-31T10:48:05;1.60;;;0.88;;
42246;SDS011;27913;42.722;23.268;2023-07-31T10:50:37;0.63;;;0.55;;
42246;SDS011;27913;42.722;23.268;2023-07-31T10:53:03;0.60;;;0.50;;
42246;SDS011;27913;42.722;23.268;2023-07-31T10:58:06;1.15;;;0.80;;
42246;SDS011;27913;42.722;23.268;2023-07-31T11:00:33;4.55;;;0.88;;
42246;SDS011;27913;42.722;23.268;2023-07-31T11:05:47;2.30;;;0.77;;
42246;SDS011;27913;42.722;23.268;2023-07-31T11:08:13;0.57;;;0.47;;
42246;SDS011;27913;42.722;23.268;2023-07-31T11:10:39;0.63;;;0.50;;
42246;SDS011;27913;42.722;23.268;2023-07-31T11:13:04;1.10;;;0.70;;
42246;SDS011;27913;42.722;23.268;2023-07-31T11:15:30;1.60;;;0.80;;
42246;SDS011;27913;42.722;23.268;2023-07-31T11:17:56;0.75;;;0.47;;
42246;SDS011;27913;42.722;23.268;2023-07-31T11:20:26;1.17;;;0.70;;
42246;SDS011;27913;42.722;23.268;2023-07-31T11:22:52;1.52;;;1.08;;
42246;SDS011;27913;42.722;23.268;2023-07-31T11:25:17;1.40;;;0.55;;
42246;SDS011;27913;42.722;23.268;2023-07-31T11:27:43;0.65;;;0.55;;
42246;SDS011;27913;42.722;23.268;2023-07-31T11:30:10;1.20;;;0.88;;
42246;SDS011;27913;42.722;23.268;2023-07-31T11:32:36;1.67;;;1.05;;
42246;SDS011;27913;42.722;23.268;2023-07-31T11:35:02;1.13;;;0.85;;
42246;SDS011;27913;42.722;23.268;2023-07-31T11:37:39;1.08;;;0.82;;
42246;SDS011;27913;42.722;23.268;2023-07-31T11:40:08;3.35;;;1.05;;
42246;SDS011;27913;42.722;23.268;2023-07-31T11:42:37;1.80;;;0.93;;
42246;SDS011;27913;42.722;23.268;2023-07-31T11:45:06;3.80;;;1.30;;
42246;SDS011;27913;42.722;23.268;2023-07-31T11:50:02;3.25;;;0.90;;
42246;SDS011;27913;42.722;23.268;2023-07-31T11:52:29;1.40;;;0.93;;
42246;SDS011;27913;42.722;23.268;2023-07-31T11:54:59;6.03;;;2.33;;
42246;SDS011;27913;42.722;23.268;2023-07-31T11:57:25;1.88;;;1.30;;
42246;SDS011;27913;42.722;23.268;2023-07-31T11:59:51;2.13;;;1.50;;
42246;SDS011;27913;42.722;23.268;2023-07-31T12:02:17;1.83;;;1.50;;
42246;SDS011;27913;42.722;23.268;2023-07-31T12:04:43;1.63;;;1.17;;
42246;SDS011;27913;42.722;23.268;2023-07-31T12:07:10;2.50;;;1.70;;
42246;SDS011;27913;42.722;23.268;2023-07-31T12:09:37;2.15;;;1.45;;
42246;SDS011;27913;42.722;23.268;2023-07-31T12:12:03;2.38;;;1.55;;
42246;SDS011;27913;42.722;23.268;2023-07-31T12:14:34;2.22;;;1.50;;
42246;SDS011;27913;42.722;23.268;2023-07-31T12:17:00;4.25;;;2.05;;
42246;SDS011;27913;42.722;23.268;2023-07-31T12:19:29;1.38;;;1.10;;
42246;SDS011;27913;42.722;23.268;2023-07-31T12:21:56;2.85;;;1.67;;
42246;SDS011;27913;42.722;23.268;2023-07-31T12:24:21;2.42;;;1.48;;
42246;SDS011;27913;42.722;23.268;2023-07-31T12:26:48;4.82;;;2.42;;
42246;SDS011;27913;42.722;23.268;2023-07-31T12:29:14;2.28;;;1.58;;
42246;SDS011;27913;42.722;23.268;2023-07-31T12:31:43;1.90;;;1.20;;
42246;SDS011;27913;42.722;23.268;2023-07-31T12:34:18;2.50;;;1.40;;
42246;SDS011;27913;42.722;23.268;2023-07-31T12:36:46;3.25;;;1.40;;
42246;SDS011;27913;42.722;23.268;2023-07-31T12:39:14;2.70;;;1.58;;
42246;SDS011;27913;42.722;23.268;2023-07-31T12:41:40;8.30;;;2.03;;
42246;SDS011;27913;42.722;23.268;2023-07-31T12:44:05;2.10;;;1.52;;
42246;SDS011;27913;42.722;23.268;2023-07-31T12:46:31;3.47;;;1.70;;
42246;SDS011;27913;42.722;23.268;2023-07-31T12:48:56;4.53;;;1.27;;
42246;SDS011;27913;42.722;23.268;2023-07-31T12:51:22;2.40;;;1.58;;
42246;SDS011;27913;42.722;23.268;2023-07-31T12:53:47;5.13;;;2.33;;
42246;SDS011;27913;42.722;23.268;2023-07-31T12:56:13;2.67;;;1.58;;
42246;SDS011;27913;42.722;23.268;2023-07-31T12:58:38;2.22;;;1.35;;
42246;SDS011;27913;42.722;23.268;2023-07-31T13:01:04;5.47;;;2.80;;
42246;SDS011;27913;42.722;23.268;2023-07-31T13:03:30;3.33;;;1.88;;
42246;SDS011;27913;42.722;23.268;2023-07-31T13:05:56;1.98;;;1.38;;
42246;SDS011;27913;42.722;23.268;2023-07-31T13:08:22;1.63;;;1.23;;
42246;SDS011;27913;42.722;23.268;2023-07-31T13:10:47;1.83;;;1.33;;
42246;SDS011;27913;42.722;23.268;2023-07-31T13:13:13;1.88;;;1.35;;
42246;SDS011;27913;42.722;23.268;2023-07-31T13:15:38;1.60;;;1.08;;
42246;SDS011;27913;42.722;23.268;2023-07-31T13:18:04;2.13;;;1.30;;
42246;SDS011;27913;42.722;23.268;2023-07-31T13:20:29;6.53;;;1.38;;
42246;SDS011;27913;42.722;23.268;2023-07-31T13:22:55;1.77;;;1.17;;
42246;SDS011;27913;42.722;23.268;2023-07-31T13:25:20;1.42;;;1.10;;
42246;SDS011;27913;42.722;23.268;2023-07-31T13:27:47;4.03;;;1.42;;
42246;SDS011;27913;42.722;23.268;2023-07-31T13:30:12;2.50;;;1.33;;
42246;SDS011;27913;42.722;23.268;2023-07-31T13:32:38;3.67;;;1.95;;
42246;SDS011;27913;42.722;23.268;2023-07-31T13:35:05;1.58;;;1.08;;
42246;SDS011;27913;42.722;23.268;2023-07-31T13:37:31;4.85;;;1.15;;
42246;SDS011;27913;42.722;23.268;2023-07-31T13:39:57;3.70;;;1.40;;
42246;SDS011;27913;42.722;23.268;2023-07-31T13:42:22;2.47;;;1.20;;
42246;SDS011;27913;42.722;23.268;2023-07-31T13:44:48;2.08;;;1.30;;
42246;SDS011;27913;42.722;23.268;2023-07-31T13:47:13;2.53;;;1.40;;
42246;SDS011;27913;42.722;23.268;2023-07-31T13:49:38;1.80;;;1.13;;
42246;SDS011;27913;42.722;23.268;2023-07-31T13:52:04;3.28;;;1.20;;
42246;SDS011;27913;42.722;23.268;2023-07-31T13:54:30;2.25;;;1.40;;
42246;SDS011;27913;42.722;23.268;2023-07-31T13:56:55;1.58;;;1.20;;
42246;SDS011;27913;42.722;23.268;2023-07-31T13:59:21;1.92;;;1.33;;
42246;SDS011;27913;42.722;23.268;2023-07-31T14:01:47;2.17;;;1.17;;
42246;SDS011;27913;42.722;23.268;2023-07-31T14:04:13;2.33;;;1.20;;
42246;SDS011;27913;42.722;23.268;2023-07-31T14:06:38;2.42;;;1.50;;
42246;SDS011;27913;42.722;23.268;2023-07-31T14:09:04;2.95;;;1.55;;
42246;SDS011;27913;42.722;23.268;2023-07-31T14:11:33;2.13;;;1.30;;
42246;SDS011;27913;42.722;23.268;2023-07-31T14:13:59;1.63;;;1.27;;
42246;SDS011;27913;42.722;23.268;2023-07-31T14:16:24;1.27;;;1.00;;
42246;SDS011;27913;42.722;23.268;2023-07-31T14:18:50;2.08;;;1.30;;
42246;SDS011;27913;42.722;23.268;2023-07-31T14:21:15;1.35;;;0.95;;
42246;SDS011;27913;42.722;23.268;2023-07-31T14:23:41;4.80;;;1.30;;
42246;SDS011;27913;42.722;23.268;2023-07-31T14:26:07;2.90;;;1.60;;
42246;SDS011;27913;42.722;23.268;2023-07-31T14:28:33;2.30;;;1.35;;
42246;SDS011;27913;42.722;23.268;2023-07-31T14:30:59;3.33;;;1.85;;
42246;SDS011;27913;42.722;23.268;2023-07-31T14:33:24;1.65;;;0.90;;
42246;SDS011;27913;42.722;23.268;2023-07-31T14:35:50;1.38;;;0.93;;
42246;SDS011;27913;42.722;23.268;2023-07-31T14:38:16;5.70;;;1.25;;
42246;SDS011;27913;42.722;23.268;2023-07-31T14:40:42;2.63;;;1.63;;
42246;SDS011;27913;42.722;23.268;2023-07-31T14:43:08;1.90;;;1.35;;
42246;SDS011;27913;42.722;23.268;2023-07-31T14:45:33;1.75;;;1.10;;
42246;SDS011;27913;42.722;23.268;2023-07-31T14:47:58;1.58;;;1.08;;
42246;SDS011;27913;42.722;23.268;2023-07-31T14:50:25;1.27;;;1.10;;
42246;SDS011;27913;42.722;23.268;2023-07-31T14:52:51;1.73;;;1.13;;
42246;SDS011;27913;42.722;23.268;2023-07-31T14:55:17;1.92;;;1.25;;